Terminal Aerodrome Forecast
Issued by NWS

Home | Current Version | Previous Version | Text Only | Print | Product List | Glossary Off
Versions: 1 2 3 4 5 6 7 8 9 10 11 12 13 14 15

000
FTUS43 KICT 240534
TAFSLN
TAF
KSLN 240534Z 2406/2506 32007KT P6SM BKN060
     FM241500 34011KT P6SM SCT120
     FM250100 02005KT P6SM SKC
     FM250200 09004KT P6SM SKC=

USA.gov is the U.S. government's official web portal to all federal, state and local government web resources and services.